sensor_id;sensor_type;location;lat;lon;timestamp;temperature;humidity
56428;DHT22;42331;53.578;9.760;2024-02-04T00:01:01;6.50;99.90
56428;DHT22;42331;53.578;9.760;2024-02-04T00:03:31;6.50;99.90
56428;DHT22;42331;53.578;9.760;2024-02-04T00:06:02;6.40;99.90
56428;DHT22;42331;53.578;9.760;2024-02-04T00:08:33;6.40;99.90
56428;DHT22;42331;53.578;9.760;2024-02-04T00:11:04;6.40;99.90
56428;DHT22;42331;53.578;9.760;2024-02-04T00:13:39;6.30;99.90
56428;DHT22;42331;53.578;9.760;2024-02-04T00:16:10;6.30;99.90
56428;DHT22;42331;53.578;9.760;2024-02-04T00:18:41;6.30;99.90
56428;DHT22;42331;53.578;9.760;2024-02-04T00:21:12;6.30;99.90
56428;DHT22;42331;53.578;9.760;2024-02-04T00:23:43;6.30;99.90
56428;DHT22;42331;53.578;9.760;2024-02-04T00:26:13;6.30;99.90
56428;DHT22;42331;53.578;9.760;2024-02-04T00:28:44;6.30;99.90
56428;DHT22;42331;53.578;9.760;2024-02-04T00:31:15;6.30;99.90
56428;DHT22;42331;53.578;9.760;2024-02-04T00:33:46;6.20;99.90
56428;DHT22;42331;53.578;9.760;2024-02-04T00:36:17;6.30;99.90
56428;DHT22;42331;53.578;9.760;2024-02-04T00:38:49;6.20;99.90
56428;DHT22;42331;53.578;9.760;2024-02-04T00:41:20;6.30;99.90
56428;DHT22;42331;53.578;9.760;2024-02-04T00:43:51;6.30;99.90
56428;DHT22;42331;53.578;9.760;2024-02-04T00:46:23;6.20;99.90
56428;DHT22;42331;53.578;9.760;2024-02-04T00:48:53;6.20;99.90
56428;DHT22;42331;53.578;9.760;2024-02-04T00:51:24;6.10;99.90
56428;DHT22;42331;53.578;9.760;2024-02-04T00:53:57;6.20;99.90
56428;DHT22;42331;53.578;9.760;2024-02-04T00:56:28;6.20;99.90
56428;DHT22;42331;53.578;9.760;2024-02-04T00:58:59;6.20;99.90
56428;DHT22;42331;53.578;9.760;2024-02-04T01:01:30;6.30;99.90
56428;DHT22;42331;53.578;9.760;2024-02-04T01:04:02;6.30;99.90
56428;DHT22;42331;53.578;9.760;2024-02-04T01:06:33;6.40;99.90
56428;DHT22;42331;53.578;9.760;2024-02-04T01:09:04;6.50;99.90
56428;DHT22;42331;53.578;9.760;2024-02-04T01:11:34;6.50;99.90
56428;DHT22;42331;53.578;9.760;2024-02-04T01:14:05;6.50;99.90
56428;DHT22;42331;53.578;9.760;2024-02-04T01:16:36;6.60;99.90
56428;DHT22;42331;53.578;9.760;2024-02-04T01:19:07;6.60;99.90
56428;DHT22;42331;53.578;9.760;2024-02-04T01:21:38;6.70;99.90
56428;DHT22;42331;53.578;9.760;2024-02-04T01:24:12;6.70;99.90
56428;DHT22;42331;53.578;9.760;2024-02-04T01:26:42;6.80;99.90
56428;DHT22;42331;53.578;9.760;2024-02-04T01:29:13;6.70;99.90
56428;DHT22;42331;53.578;9.760;2024-02-04T01:31:44;6.70;99.90
56428;DHT22;42331;53.578;9.760;2024-02-04T01:34:14;6.80;99.90
56428;DHT22;42331;53.578;9.760;2024-02-04T01:36:45;6.80;99.90
56428;DHT22;42331;53.578;9.760;2024-02-04T01:39:16;6.90;99.90
56428;DHT22;42331;53.578;9.760;2024-02-04T01:41:46;6.90;99.90
56428;DHT22;42331;53.578;9.760;2024-02-04T01:44:17;6.90;99.90
56428;DHT22;42331;53.578;9.760;2024-02-04T01:46:49;7.00;99.90
56428;DHT22;42331;53.578;9.760;2024-02-04T01:49:20;7.00;99.90
56428;DHT22;42331;53.578;9.760;2024-02-04T01:51:50;6.90;99.90
56428;DHT22;42331;53.578;9.760;2024-02-04T01:54:22;7.00;99.90
56428;DHT22;42331;53.578;9.760;2024-02-04T01:56:55;7.00;99.90
56428;DHT22;42331;53.578;9.760;2024-02-04T01:59:26;7.00;99.90
56428;DHT22;42331;53.578;9.760;2024-02-04T02:02:01;7.00;99.90
56428;DHT22;42331;53.578;9.760;2024-02-04T02:04:32;7.00;99.90
56428;DHT22;42331;53.578;9.760;2024-02-04T02:07:02;7.10;99.90
56428;DHT22;42331;53.578;9.760;2024-02-04T02:09:33;7.10;99.90
56428;DHT22;42331;53.578;9.760;2024-02-04T02:12:24;7.10;99.90
56428;DHT22;42331;53.578;9.760;2024-02-04T02:17:55;7.10;99.90
56428;DHT22;42331;53.578;9.760;2024-02-04T02:21:18;7.10;99.90
56428;DHT22;42331;53.578;9.760;2024-02-04T02:23:36;7.10;99.90
56428;DHT22;42331;53.578;9.760;2024-02-04T02:26:11;7.10;99.90
56428;DHT22;42331;53.578;9.760;2024-02-04T02:28:41;7.00;99.90
56428;DHT22;42331;53.578;9.760;2024-02-04T02:31:12;7.00;99.90
56428;DHT22;42331;53.578;9.760;2024-02-04T02:33:43;7.00;99.90
56428;DHT22;42331;53.578;9.760;2024-02-04T02:36:19;7.00;99.90
56428;DHT22;42331;53.578;9.760;2024-02-04T02:39:48;7.00;99.90
56428;DHT22;42331;53.578;9.760;2024-02-04T02:42:12;6.90;99.90
56428;DHT22;42331;53.578;9.760;2024-02-04T02:44:44;6.90;99.90
56428;DHT22;42331;53.578;9.760;2024-02-04T02:47:15;6.80;99.90
56428;DHT22;42331;53.578;9.760;2024-02-04T02:49:48;6.80;99.90
56428;DHT22;42331;53.578;9.760;2024-02-04T02:52:21;6.90;99.90
56428;DHT22;42331;53.578;9.760;2024-02-04T02:54:52;6.80;99.90
56428;DHT22;42331;53.578;9.760;2024-02-04T02:57:23;6.80;99.90
56428;DHT22;42331;53.578;9.760;2024-02-04T02:59:54;6.80;99.90
56428;DHT22;42331;53.578;9.760;2024-02-04T03:02:24;6.80;99.90
56428;DHT22;42331;53.578;9.760;2024-02-04T03:04:55;6.70;99.90
56428;DHT22;42331;53.578;9.760;2024-02-04T03:07:26;6.70;99.90
56428;DHT22;42331;53.578;9.760;2024-02-04T03:09:57;6.70;99.90
56428;DHT22;42331;53.578;9.760;2024-02-04T03:12:27;6.70;99.90
56428;DHT22;42331;53.578;9.760;2024-02-04T03:14:58;6.70;99.90
56428;DHT22;42331;53.578;9.760;2024-02-04T03:17:29;6.70;99.90
56428;DHT22;42331;53.578;9.760;2024-02-04T03:19:59;6.70;99.90
56428;DHT22;42331;53.578;9.760;2024-02-04T03:22:30;6.70;99.90
56428;DHT22;42331;53.578;9.760;2024-02-04T03:25:01;6.70;99.90
56428;DHT22;42331;53.578;9.760;2024-02-04T03:27:31;6.60;99.90
56428;DHT22;42331;53.578;9.760;2024-02-04T03:30:02;6.70;99.90
56428;DHT22;42331;53.578;9.760;2024-02-04T03:32:33;6.70;99.90
56428;DHT22;42331;53.578;9.760;2024-02-04T03:35:04;6.60;99.90
56428;DHT22;42331;53.578;9.760;2024-02-04T03:37:35;6.60;99.90
56428;DHT22;42331;53.578;9.760;2024-02-04T03:40:06;6.60;99.90
56428;DHT22;42331;53.578;9.760;2024-02-04T03:42:37;6.50;99.90
56428;DHT22;42331;53.578;9.760;2024-02-04T03:45:08;6.60;99.90
56428;DHT22;42331;53.578;9.760;2024-02-04T03:47:39;6.50;99.90
56428;DHT22;42331;53.578;9.760;2024-02-04T03:50:10;6.40;99.90
56428;DHT22;42331;53.578;9.760;2024-02-04T03:52:40;6.50;99.90
56428;DHT22;42331;53.578;9.760;2024-02-04T03:55:11;6.50;99.90
56428;DHT22;42331;53.578;9.760;2024-02-04T03:57:42;6.50;99.90
56428;DHT22;42331;53.578;9.760;2024-02-04T04:00:13;6.50;99.90
56428;DHT22;42331;53.578;9.760;2024-02-04T04:02:44;6.50;99.90
56428;DHT22;42331;53.578;9.760;2024-02-04T04:05:15;6.50;99.90
56428;DHT22;42331;53.578;9.760;2024-02-04T04:07:46;6.40;99.90
56428;DHT22;42331;53.578;9.760;2024-02-04T04:10:16;6.40;99.90
56428;DHT22;42331;53.578;9.760;2024-02-04T04:12:47;6.40;99.90
56428;DHT22;42331;53.578;9.760;2024-02-04T04:15:18;6.40;99.90
56428;DHT22;42331;53.578;9.760;2024-02-04T04:17:49;6.30;99.90
56428;DHT22;42331;53.578;9.760;2024-02-04T04:20:19;6.30;99.90
56428;DHT22;42331;53.578;9.760;2024-02-04T04:22:50;6.30;99.90
56428;DHT22;42331;53.578;9.760;2024-02-04T04:25:21;6.30;99.90
56428;DHT22;42331;53.578;9.760;2024-02-04T04:27:51;6.30;99.90
56428;DHT22;42331;53.578;9.760;2024-02-04T04:30:22;6.30;99.90
56428;DHT22;42331;53.578;9.760;2024-02-04T04:32:53;6.20;99.90
56428;DHT22;42331;53.578;9.760;2024-02-04T04:35:24;6.20;99.90
56428;DHT22;42331;53.578;9.760;2024-02-04T04:37:54;6.20;99.90
56428;DHT22;42331;53.578;9.760;2024-02-04T04:40:25;6.20;99.90
56428;DHT22;42331;53.578;9.760;2024-02-04T04:42:56;6.20;99.90
56428;DHT22;42331;53.578;9.760;2024-02-04T04:45:27;6.20;99.90
56428;DHT22;42331;53.578;9.760;2024-02-04T04:47:57;6.20;99.90
56428;DHT22;42331;53.578;9.760;2024-02-04T04:50:28;6.10;99.90
56428;DHT22;42331;53.578;9.760;2024-02-04T04:52:59;6.20;99.90
56428;DHT22;42331;53.578;9.760;2024-02-04T04:55:29;6.10;99.90
56428;DHT22;42331;53.578;9.760;2024-02-04T04:58:00;6.10;99.90
56428;DHT22;42331;53.578;9.760;2024-02-04T05:00:31;6.10;99.90
56428;DHT22;42331;53.578;9.760;2024-02-04T05:03:01;6.10;99.90
56428;DHT22;42331;53.578;9.760;2024-02-04T05:05:32;6.10;99.90
56428;DHT22;42331;53.578;9.760;2024-02-04T05:08:03;6.10;99.90
56428;DHT22;42331;53.578;9.760;2024-02-04T05:10:34;6.00;99.90
56428;DHT22;42331;53.578;9.760;2024-02-04T05:13:05;6.00;99.90
56428;DHT22;42331;53.578;9.760;2024-02-04T05:15:35;6.00;99.90
56428;DHT22;42331;53.578;9.760;2024-02-04T05:18:06;6.00;99.90
56428;DHT22;42331;53.578;9.760;2024-02-04T05:20:36;6.00;99.90
56428;DHT22;42331;53.578;9.760;2024-02-04T05:23:07;6.00;99.90
56428;DHT22;42331;53.578;9.760;2024-02-04T05:25:38;6.10;99.90
56428;DHT22;42331;53.578;9.760;2024-02-04T05:28:08;6.00;99.90
56428;DHT22;42331;53.578;9.760;2024-02-04T05:30:39;6.00;99.90
56428;DHT22;42331;53.578;9.760;2024-02-04T05:33:13;6.00;99.90
56428;DHT22;42331;53.578;9.760;2024-02-04T05:35:45;6.10;99.90
56428;DHT22;42331;53.578;9.760;2024-02-04T05:38:18;6.10;99.90
56428;DHT22;42331;53.578;9.760;2024-02-04T05:40:49;6.10;99.90
56428;DHT22;42331;53.578;9.760;2024-02-04T05:43:20;6.00;99.90
56428;DHT22;42331;53.578;9.760;2024-02-04T05:45:51;6.00;99.90
56428;DHT22;42331;53.578;9.760;2024-02-04T05:48:21;6.00;99.90
56428;DHT22;42331;53.578;9.760;2024-02-04T05:50:52;6.10;99.90
56428;DHT22;42331;53.578;9.760;2024-02-04T05:53:23;6.00;99.90
56428;DHT22;42331;53.578;9.760;2024-02-04T05:55:53;6.00;99.90
56428;DHT22;42331;53.578;9.760;2024-02-04T05:58:24;6.00;99.90
56428;DHT22;42331;53.578;9.760;2024-02-04T06:00:55;6.10;99.90
56428;DHT22;42331;53.578;9.760;2024-02-04T06:03:25;6.00;99.90
56428;DHT22;42331;53.578;9.760;2024-02-04T06:05:56;6.00;99.90
56428;DHT22;42331;53.578;9.760;2024-02-04T06:08:27;6.10;99.90
56428;DHT22;42331;53.578;9.760;2024-02-04T06:10:57;6.10;99.90
56428;DHT22;42331;53.578;9.760;2024-02-04T06:13:31;6.00;99.90
56428;DHT22;42331;53.578;9.760;2024-02-04T06:16:01;6.10;99.90
56428;DHT22;42331;53.578;9.760;2024-02-04T06:18:32;6.20;99.90
56428;DHT22;42331;53.578;9.760;2024-02-04T06:21:04;6.10;99.90
56428;DHT22;42331;53.578;9.760;2024-02-04T06:23:34;6.10;99.90
56428;DHT22;42331;53.578;9.760;2024-02-04T06:26:05;6.10;99.90
56428;DHT22;42331;53.578;9.760;2024-02-04T06:28:36;6.10;99.90
56428;DHT22;42331;53.578;9.760;2024-02-04T06:31:10;6.10;99.90
56428;DHT22;42331;53.578;9.760;2024-02-04T06:33:40;6.10;99.90
56428;DHT22;42331;53.578;9.760;2024-02-04T06:36:11;6.10;99.90
56428;DHT22;42331;53.578;9.760;2024-02-04T06:38:42;6.20;99.90
56428;DHT22;42331;53.578;9.760;2024-02-04T06:41:12;6.20;99.90
56428;DHT22;42331;53.578;9.760;2024-02-04T06:43:43;6.20;99.90
56428;DHT22;42331;53.578;9.760;2024-02-04T06:46:23;6.20;99.90
56428;DHT22;42331;53.578;9.760;2024-02-04T06:48:54;6.20;99.90
56428;DHT22;42331;53.578;9.760;2024-02-04T06:51:25;6.10;99.90
56428;DHT22;42331;53.578;9.760;2024-02-04T06:53:56;6.20;99.90
56428;DHT22;42331;53.578;9.760;2024-02-04T06:56:27;6.20;99.90
56428;DHT22;42331;53.578;9.760;2024-02-04T06:58:57;6.20;99.90
56428;DHT22;42331;53.578;9.760;2024-02-04T07:01:28;6.10;99.90
56428;DHT22;42331;53.578;9.760;2024-02-04T07:03:59;6.10;99.90
56428;DHT22;42331;53.578;9.760;2024-02-04T07:06:29;6.10;99.90
56428;DHT22;42331;53.578;9.760;2024-02-04T07:09:00;6.20;99.90
56428;DHT22;42331;53.578;9.760;2024-02-04T07:11:31;6.20;99.90
56428;DHT22;42331;53.578;9.760;2024-02-04T07:14:01;6.20;99.90
56428;DHT22;42331;53.578;9.760;2024-02-04T07:16:32;6.20;99.90
56428;DHT22;42331;53.578;9.760;2024-02-04T07:19:03;6.20;99.90
56428;DHT22;42331;53.578;9.760;2024-02-04T07:21:34;6.20;99.90
56428;DHT22;42331;53.578;9.760;2024-02-04T07:24:05;6.30;99.90
56428;DHT22;42331;53.578;9.760;2024-02-04T07:26:36;6.20;99.90
56428;DHT22;42331;53.578;9.760;2024-02-04T07:29:06;6.20;99.90
56428;DHT22;42331;53.578;9.760;2024-02-04T07:31:37;6.30;99.90
56428;DHT22;42331;53.578;9.760;2024-02-04T07:34:08;6.30;99.90
56428;DHT22;42331;53.578;9.760;2024-02-04T07:36:39;6.30;99.90
56428;DHT22;42331;53.578;9.760;2024-02-04T07:39:10;6.30;99.90
56428;DHT22;42331;53.578;9.760;2024-02-04T07:41:40;6.30;99.90
56428;DHT22;42331;53.578;9.760;2024-02-04T07:44:11;6.30;99.90
56428;DHT22;42331;53.578;9.760;2024-02-04T07:46:42;6.40;99.90
56428;DHT22;42331;53.578;9.760;2024-02-04T07:49:12;6.40;99.90
56428;DHT22;42331;53.578;9.760;2024-02-04T07:51:43;6.30;99.90
56428;DHT22;42331;53.578;9.760;2024-02-04T07:54:14;6.40;99.90
56428;DHT22;42331;53.578;9.760;2024-02-04T07:56:44;6.40;99.90
56428;DHT22;42331;53.578;9.760;2024-02-04T07:59:15;6.50;99.90
56428;DHT22;42331;53.578;9.760;2024-02-04T08:01:46;6.50;99.90
56428;DHT22;42331;53.578;9.760;2024-02-04T08:04:16;6.50;99.90
56428;DHT22;42331;53.578;9.760;2024-02-04T08:06:47;6.50;99.90
56428;DHT22;42331;53.578;9.760;2024-02-04T08:09:18;6.60;99.90
56428;DHT22;42331;53.578;9.760;2024-02-04T08:11:48;6.60;99.90
56428;DHT22;42331;53.578;9.760;2024-02-04T08:14:19;6.60;99.90
56428;DHT22;42331;53.578;9.760;2024-02-04T08:16:50;6.60;99.90
56428;DHT22;42331;53.578;9.760;2024-02-04T08:19:20;6.60;99.90
56428;DHT22;42331;53.578;9.760;2024-02-04T08:21:51;6.70;99.90
56428;DHT22;42331;53.578;9.760;2024-02-04T08:24:22;6.70;99.90
56428;DHT22;42331;53.578;9.760;2024-02-04T08:26:52;6.70;99.90
56428;DHT22;42331;53.578;9.760;2024-02-04T08:29:23;6.70;99.90
56428;DHT22;42331;53.578;9.760;2024-02-04T08:31:54;6.70;99.90
56428;DHT22;42331;53.578;9.760;2024-02-04T08:34:25;6.80;99.90
56428;DHT22;42331;53.578;9.760;2024-02-04T08:36:56;6.80;99.90
56428;DHT22;42331;53.578;9.760;2024-02-04T08:39:27;6.80;99.90
56428;DHT22;42331;53.578;9.760;2024-02-04T08:41:57;6.80;99.90
56428;DHT22;42331;53.578;9.760;2024-02-04T08:44:28;6.90;99.90
56428;DHT22;42331;53.578;9.760;2024-02-04T08:46:59;6.90;99.90
56428;DHT22;42331;53.578;9.760;2024-02-04T08:49:30;6.90;99.90
56428;DHT22;42331;53.578;9.760;2024-02-04T08:52:01;7.00;99.90
56428;DHT22;42331;53.578;9.760;2024-02-04T08:54:32;6.90;99.90
56428;DHT22;42331;53.578;9.760;2024-02-04T08:57:02;7.00;99.90
56428;DHT22;42331;53.578;9.760;2024-02-04T08:59:33;7.00;99.90
56428;DHT22;42331;53.578;9.760;2024-02-04T09:02:04;7.10;99.90
56428;DHT22;42331;53.578;9.760;2024-02-04T09:04:34;7.10;99.90
56428;DHT22;42331;53.578;9.760;2024-02-04T09:07:10;7.10;99.90
56428;DHT22;42331;53.578;9.760;2024-02-04T09:09:41;7.10;99.90
56428;DHT22;42331;53.578;9.760;2024-02-04T09:12:12;7.10;99.90
56428;DHT22;42331;53.578;9.760;2024-02-04T09:14:43;7.20;99.90
56428;DHT22;42331;53.578;9.760;2024-02-04T09:17:13;7.20;99.90
56428;DHT22;42331;53.578;9.760;2024-02-04T09:19:44;7.20;99.90
56428;DHT22;42331;53.578;9.760;2024-02-04T09:22:14;7.20;99.90
56428;DHT22;42331;53.578;9.760;2024-02-04T09:24:45;7.20;99.90
56428;DHT22;42331;53.578;9.760;2024-02-04T09:27:16;7.30;99.90
56428;DHT22;42331;53.578;9.760;2024-02-04T09:29:47;7.30;99.90
56428;DHT22;42331;53.578;9.760;2024-02-04T09:32:17;7.30;99.90
56428;DHT22;42331;53.578;9.760;2024-02-04T09:34:48;7.30;99.90
56428;DHT22;42331;53.578;9.760;2024-02-04T09:37:19;7.40;99.90
56428;DHT22;42331;53.578;9.760;2024-02-04T09:39:50;7.30;99.90
56428;DHT22;42331;53.578;9.760;2024-02-04T09:42:24;7.40;99.90
56428;DHT22;42331;53.578;9.760;2024-02-04T09:44:54;7.40;99.90
56428;DHT22;42331;53.578;9.760;2024-02-04T09:47:25;7.40;99.90
56428;DHT22;42331;53.578;9.760;2024-02-04T09:49:57;7.40;99.90
56428;DHT22;42331;53.578;9.760;2024-02-04T09:52:29;7.40;99.90
56428;DHT22;42331;53.578;9.760;2024-02-04T09:55:02;7.50;99.90
56428;DHT22;42331;53.578;9.760;2024-02-04T09:57:34;7.40;99.90
56428;DHT22;42331;53.578;9.760;2024-02-04T10:00:06;7.50;99.90
56428;DHT22;42331;53.578;9.760;2024-02-04T10:02:39;7.50;99.90
56428;DHT22;42331;53.578;9.760;2024-02-04T10:05:11;7.50;99.90
56428;DHT22;42331;53.578;9.760;2024-02-04T10:07:42;7.50;99.90
56428;DHT22;42331;53.578;9.760;2024-02-04T10:10:13;7.50;99.90
56428;DHT22;42331;53.578;9.760;2024-02-04T10:12:44;7.60;99.90
56428;DHT22;42331;53.578;9.760;2024-02-04T10:15:14;7.50;99.90
56428;DHT22;42331;53.578;9.760;2024-02-04T10:17:46;7.50;99.90
56428;DHT22;42331;53.578;9.760;2024-02-04T10:20:17;7.50;99.90
56428;DHT22;42331;53.578;9.760;2024-02-04T10:22:48;7.60;99.90
56428;DHT22;42331;53.578;9.760;2024-02-04T10:25:20;7.70;99.90
56428;DHT22;42331;53.578;9.760;2024-02-04T10:27:52;7.60;99.90
56428;DHT22;42331;53.578;9.760;2024-02-04T10:30:23;7.70;99.90
56428;DHT22;42331;53.578;9.760;2024-02-04T10:32:54;7.70;99.90
56428;DHT22;42331;53.578;9.760;2024-02-04T10:35:25;7.70;99.90
56428;DHT22;42331;53.578;9.760;2024-02-04T10:37:56;7.70;99.90
56428;DHT22;42331;53.578;9.760;2024-02-04T10:40:27;7.70;99.90
56428;DHT22;42331;53.578;9.760;2024-02-04T10:43:04;7.70;99.90
56428;DHT22;42331;53.578;9.760;2024-02-04T10:45:39;7.70;99.90
56428;DHT22;42331;53.578;9.760;2024-02-04T10:48:13;7.80;99.90
56428;DHT22;42331;53.578;9.760;2024-02-04T10:50:47;7.80;99.90
56428;DHT22;42331;53.578;9.760;2024-02-04T10:53:19;7.80;99.90
56428;DHT22;42331;53.578;9.760;2024-02-04T10:55:54;7.80;99.90
56428;DHT22;42331;53.578;9.760;2024-02-04T10:58:29;7.90;99.90
56428;DHT22;42331;53.578;9.760;2024-02-04T11:01:00;7.90;99.90
56428;DHT22;42331;53.578;9.760;2024-02-04T11:03:31;7.90;99.90
56428;DHT22;42331;53.578;9.760;2024-02-04T11:06:03;8.00;99.90
56428;DHT22;42331;53.578;9.760;2024-02-04T11:08:34;7.90;99.90
56428;DHT22;42331;53.578;9.760;2024-02-04T11:11:05;8.00;99.90
56428;DHT22;42331;53.578;9.760;2024-02-04T11:13:37;8.00;99.90
56428;DHT22;42331;53.578;9.760;2024-02-04T11:16:20;8.10;99.90
56428;DHT22;42331;53.578;9.760;2024-02-04T11:19:05;8.10;99.90
56428;DHT22;42331;53.578;9.760;2024-02-04T11:26:56;8.10;99.90
56428;DHT22;42331;53.578;9.760;2024-02-04T11:29:27;8.20;99.90
56428;DHT22;42331;53.578;9.760;2024-02-04T11:31:58;8.20;99.90
56428;DHT22;42331;53.578;9.760;2024-02-04T11:34:29;8.20;99.90
56428;DHT22;42331;53.578;9.760;2024-02-04T11:37:00;8.20;99.90
56428;DHT22;42331;53.578;9.760;2024-02-04T11:39:31;8.30;99.90
56428;DHT22;42331;53.578;9.760;2024-02-04T11:42:15;8.30;99.90
56428;DHT22;42331;53.578;9.760;2024-02-04T11:44:48;8.30;99.90
56428;DHT22;42331;53.578;9.760;2024-02-04T11:47:23;8.40;99.90
56428;DHT22;42331;53.578;9.760;2024-02-04T11:49:55;8.50;99.90
56428;DHT22;42331;53.578;9.760;2024-02-04T11:52:29;8.50;99.90
56428;DHT22;42331;53.578;9.760;2024-02-04T11:55:00;8.50;99.90
56428;DHT22;42331;53.578;9.760;2024-02-04T11:57:31;8.60;99.90
56428;DHT22;42331;53.578;9.760;2024-02-04T12:00:02;8.50;99.90
56428;DHT22;42331;53.578;9.760;2024-02-04T12:02:36;8.70;99.90
56428;DHT22;42331;53.578;9.760;2024-02-04T12:05:07;8.70;99.90
56428;DHT22;42331;53.578;9.760;2024-02-04T12:07:39;8.70;99.90
56428;DHT22;42331;53.578;9.760;2024-02-04T12:10:10;8.70;99.90
56428;DHT22;42331;53.578;9.760;2024-02-04T12:12:41;8.80;99.90
56428;DHT22;42331;53.578;9.760;2024-02-04T12:15:12;8.80;99.90
56428;DHT22;42331;53.578;9.760;2024-02-04T12:17:44;8.70;99.90
56428;DHT22;42331;53.578;9.760;2024-02-04T12:20:17;8.90;99.90
56428;DHT22;42331;53.578;9.760;2024-02-04T12:22:48;9.00;99.90
56428;DHT22;42331;53.578;9.760;2024-02-04T12:25:19;8.90;99.90
56428;DHT22;42331;53.578;9.760;2024-02-04T12:28:02;8.90;99.90
56428;DHT22;42331;53.578;9.760;2024-02-04T12:30:33;8.70;99.90
56428;DHT22;42331;53.578;9.760;2024-02-04T12:33:05;8.70;99.90
56428;DHT22;42331;53.578;9.760;2024-02-04T12:35:36;8.80;99.90
56428;DHT22;42331;53.578;9.760;2024-02-04T12:38:07;8.80;99.90
56428;DHT22;42331;53.578;9.760;2024-02-04T12:40:46;8.70;99.90
56428;DHT22;42331;53.578;9.760;2024-02-04T12:43:17;8.80;99.90
56428;DHT22;42331;53.578;9.760;2024-02-04T12:45:48;8.80;99.90
56428;DHT22;42331;53.578;9.760;2024-02-04T12:48:19;8.80;99.90
56428;DHT22;42331;53.578;9.760;2024-02-04T12:50:53;8.80;99.90
56428;DHT22;42331;53.578;9.760;2024-02-04T12:53:24;8.80;99.90
56428;DHT22;42331;53.578;9.760;2024-02-04T12:55:58;8.90;99.90
56428;DHT22;42331;53.578;9.760;2024-02-04T12:58:30;8.80;99.90
56428;DHT22;42331;53.578;9.760;2024-02-04T13:01:01;8.90;99.90
56428;DHT22;42331;53.578;9.760;2024-02-04T13:03:32;9.30;99.90
56428;DHT22;42331;53.578;9.760;2024-02-04T13:06:03;9.00;99.90
56428;DHT22;42331;53.578;9.760;2024-02-04T13:08:34;8.80;99.90
56428;DHT22;42331;53.578;9.760;2024-02-04T13:11:05;8.80;99.90
56428;DHT22;42331;53.578;9.760;2024-02-04T13:13:35;8.80;99.90
56428;DHT22;42331;53.578;9.760;2024-02-04T13:16:06;8.80;99.90
56428;DHT22;42331;53.578;9.760;2024-02-04T13:18:38;8.80;99.90
56428;DHT22;42331;53.578;9.760;2024-02-04T13:21:08;8.80;99.90
56428;DHT22;42331;53.578;9.760;2024-02-04T13:23:39;8.80;99.90
56428;DHT22;42331;53.578;9.760;2024-02-04T13:26:10;8.80;99.90
56428;DHT22;42331;53.578;9.760;2024-02-04T13:28:40;8.80;99.90
56428;DHT22;42331;53.578;9.760;2024-02-04T13:31:11;8.80;99.90
56428;DHT22;42331;53.578;9.760;2024-02-04T13:33:42;8.80;99.90
56428;DHT22;42331;53.578;9.760;2024-02-04T13:36:12;8.70;99.90
56428;DHT22;42331;53.578;9.760;2024-02-04T13:38:43;8.80;99.90
56428;DHT22;42331;53.578;9.760;2024-02-04T13:41:14;8.80;99.90
56428;DHT22;42331;53.578;9.760;2024-02-04T13:43:44;8.80;99.90
56428;DHT22;42331;53.578;9.760;2024-02-04T13:46:15;8.70;99.90
56428;DHT22;42331;53.578;9.760;2024-02-04T13:48:46;8.80;99.90
56428;DHT22;42331;53.578;9.760;2024-02-04T13:51:16;8.80;99.90
56428;DHT22;42331;53.578;9.760;2024-02-04T13:53:47;8.80;99.90
56428;DHT22;42331;53.578;9.760;2024-02-04T13:56:18;8.80;99.90
56428;DHT22;42331;53.578;9.760;2024-02-04T13:58:49;8.80;99.90
56428;DHT22;42331;53.578;9.760;2024-02-04T14:01:19;8.70;99.90
56428;DHT22;42331;53.578;9.760;2024-02-04T14:03:53;8.70;99.90
56428;DHT22;42331;53.578;9.760;2024-02-04T14:06:23;8.50;99.90
56428;DHT22;42331;53.578;9.760;2024-02-04T14:08:54;8.50;99.90
56428;DHT22;42331;53.578;9.760;2024-02-04T14:11:25;8.50;99.90
56428;DHT22;42331;53.578;9.760;2024-02-04T14:13:55;8.50;99.90
56428;DHT22;42331;53.578;9.760;2024-02-04T14:16:26;8.50;99.90
56428;DHT22;42331;53.578;9.760;2024-02-04T14:18:57;8.50;99.90
56428;DHT22;42331;53.578;9.760;2024-02-04T14:21:27;8.50;99.90
56428;DHT22;42331;53.578;9.760;2024-02-04T14:23:58;8.50;99.90
56428;DHT22;42331;53.578;9.760;2024-02-04T14:26:29;8.50;99.90
56428;DHT22;42331;53.578;9.760;2024-02-04T14:29:01;8.50;99.90
56428;DHT22;42331;53.578;9.760;2024-02-04T14:31:32;8.40;99.90
56428;DHT22;42331;53.578;9.760;2024-02-04T14:34:03;8.50;99.90
56428;DHT22;42331;53.578;9.760;2024-02-04T14:36:34;8.40;99.90
56428;DHT22;42331;53.578;9.760;2024-02-04T14:39:05;8.40;99.90
56428;DHT22;42331;53.578;9.760;2024-02-04T14:41:36;8.40;99.90
56428;DHT22;42331;53.578;9.760;2024-02-04T14:44:08;8.40;99.90
56428;DHT22;42331;53.578;9.760;2024-02-04T14:46:38;8.40;99.90
56428;DHT22;42331;53.578;9.760;2024-02-04T14:49:09;8.40;99.90
56428;DHT22;42331;53.578;9.760;2024-02-04T14:51:40;8.40;99.90
56428;DHT22;42331;53.578;9.760;2024-02-04T14:54:11;8.40;99.90
56428;DHT22;42331;53.578;9.760;2024-02-04T14:56:42;8.40;99.90
56428;DHT22;42331;53.578;9.760;2024-02-04T14:59:16;8.40;99.90
56428;DHT22;42331;53.578;9.760;2024-02-04T15:01:48;8.40;99.90
56428;DHT22;42331;53.578;9.760;2024-02-04T15:04:19;8.40;99.90
56428;DHT22;42331;53.578;9.760;2024-02-04T15:06:52;8.30;99.90
56428;DHT22;42331;53.578;9.760;2024-02-04T15:09:23;8.30;99.90
56428;DHT22;42331;53.578;9.760;2024-02-04T15:11:57;8.20;99.90
56428;DHT22;42331;53.578;9.760;2024-02-04T15:14:28;8.10;99.90
56428;DHT22;42331;53.578;9.760;2024-02-04T15:16:59;8.10;99.90
56428;DHT22;42331;53.578;9.760;2024-02-04T15:19:31;8.00;99.90
56428;DHT22;42331;53.578;9.760;2024-02-04T15:22:06;7.90;99.90
56428;DHT22;42331;53.578;9.760;2024-02-04T15:24:37;7.80;99.90
56428;DHT22;42331;53.578;9.760;2024-02-04T15:27:08;7.70;99.90
56428;DHT22;42331;53.578;9.760;2024-02-04T15:29:41;7.60;99.90
56428;DHT22;42331;53.578;9.760;2024-02-04T15:32:14;7.60;99.90
56428;DHT22;42331;53.578;9.760;2024-02-04T15:34:46;7.50;99.90
56428;DHT22;42331;53.578;9.760;2024-02-04T15:37:17;7.50;99.90
56428;DHT22;42331;53.578;9.760;2024-02-04T15:39:49;7.40;99.90
56428;DHT22;42331;53.578;9.760;2024-02-04T15:42:19;7.40;99.90
56428;DHT22;42331;53.578;9.760;2024-02-04T15:44:50;7.40;99.90
56428;DHT22;42331;53.578;9.760;2024-02-04T15:47:26;7.30;99.90
56428;DHT22;42331;53.578;9.760;2024-02-04T15:49:58;7.30;99.90
56428;DHT22;42331;53.578;9.760;2024-02-04T15:52:28;7.30;99.90
56428;DHT22;42331;53.578;9.760;2024-02-04T15:55:02;7.30;99.90
56428;DHT22;42331;53.578;9.760;2024-02-04T15:57:36;7.20;99.90
56428;DHT22;42331;53.578;9.760;2024-02-04T16:00:08;7.30;99.90
56428;DHT22;42331;53.578;9.760;2024-02-04T16:02:49;7.20;99.90
56428;DHT22;42331;53.578;9.760;2024-02-04T16:05:21;7.20;99.90
56428;DHT22;42331;53.578;9.760;2024-02-04T16:07:52;7.20;99.90
56428;DHT22;42331;53.578;9.760;2024-02-04T16:10:26;7.10;99.90
56428;DHT22;42331;53.578;9.760;2024-02-04T16:12:58;7.20;99.90
56428;DHT22;42331;53.578;9.760;2024-02-04T16:15:30;7.10;99.90
56428;DHT22;42331;53.578;9.760;2024-02-04T16:18:01;7.10;99.90
56428;DHT22;42331;53.578;9.760;2024-02-04T16:20:32;7.10;99.90